createdAt,value
2022-12-29T00:01:03.336Z,7.55
2022-12-29T00:03:30.851Z,7.49
2022-12-29T00:05:59.507Z,7.52
2022-12-29T00:08:41.999Z,7.56
2022-12-29T00:11:11.894Z,7.58
2022-12-29T00:13:58.460Z,7.56
2022-12-29T00:16:27.784Z,7.58
2022-12-29T00:18:55.255Z,7.53
2022-12-29T00:21:42.626Z,7.45
2022-12-29T00:24:27.677Z,7.53
2022-12-29T00:27:27.387Z,7.48
2022-12-29T00:30:13.283Z,7.50
2022-12-29T00:32:59.891Z,7.46
2022-12-29T00:35:34.638Z,7.56
2022-12-29T00:38:24.921Z,7.46
2022-12-29T00:41:10.926Z,7.34
2022-12-29T00:43:56.930Z,7.31
2022-12-29T00:46:24.403Z,7.32
2022-12-29T00:49:10.507Z,7.25
2022-12-29T00:51:38.099Z,7.17
2022-12-29T00:54:05.486Z,7.25
2022-12-29T00:56:32.896Z,7.31
2022-12-29T00:59:07.022Z,7.34
2022-12-29T01:01:37.699Z,7.33
2022-12-29T01:04:05.956Z,7.34
2022-12-29T01:06:35.178Z,7.32
2022-12-29T01:09:21.651Z,7.23
2022-12-29T01:11:49.053Z,7.19
2022-12-29T01:14:17.330Z,7.17
2022-12-29T01:16:46.219Z,7.17
2022-12-29T01:19:15.108Z,7.25
2022-12-29T01:21:42.592Z,7.22
2022-12-29T01:24:10.338Z,7.25
2022-12-29T01:26:37.799Z,7.34
2022-12-29T01:29:05.153Z,7.35
2022-12-29T01:31:32.636Z,7.38
2022-12-29T01:34:00.050Z,7.35
2022-12-29T01:36:27.500Z,7.36
2022-12-29T01:38:54.861Z,7.40
2022-12-29T01:41:22.454Z,7.40
2022-12-29T01:43:57.262Z,7.43
2022-12-29T01:46:32.344Z,7.44
2022-12-29T01:49:23.041Z,7.50
2022-12-29T01:51:56.733Z,7.49
2022-12-29T01:54:29.435Z,7.47
2022-12-29T01:57:00.408Z,7.42
2022-12-29T01:59:33.357Z,7.40
2022-12-29T02:02:01.691Z,7.39
2022-12-29T02:04:32.531Z,7.43
2022-12-29T02:07:09.605Z,7.41
2022-12-29T02:09:37.185Z,7.39
2022-12-29T02:12:04.851Z,7.41
2022-12-29T02:14:32.631Z,7.44
2022-12-29T02:17:18.648Z,7.47
2022-12-29T02:20:14.315Z,7.43
2022-12-29T02:23:03.340Z,7.44
2022-12-29T02:25:52.332Z,7.41
2022-12-29T02:28:55.810Z,7.38
2022-12-29T02:31:39.496Z,7.36
2022-12-29T02:34:25.273Z,7.36
2022-12-29T02:37:28.149Z,7.35
2022-12-29T02:40:05.684Z,7.32
2022-12-29T02:42:42.318Z,7.28
2022-12-29T02:45:27.464Z,7.25
2022-12-29T02:48:38.483Z,7.20
2022-12-29T02:51:18.859Z,7.16
2022-12-29T02:54:23.756Z,7.10
2022-12-29T02:56:51.127Z,7.14
2022-12-29T02:59:19.079Z,7.06
2022-12-29T03:02:17.916Z,7.06
2022-12-29T03:05:24.420Z,7.02
2022-12-29T03:07:57.660Z,7.05
2022-12-29T03:10:49.513Z,7.03
2022-12-29T03:13:58.348Z,7.01
2022-12-29T03:16:37.168Z,6.97
2022-12-29T03:19:23.584Z,6.98
2022-12-29T03:22:15.177Z,7.04
2022-12-29T03:24:48.936Z,7.03
2022-12-29T03:27:33.846Z,6.98
2022-12-29T03:30:04.915Z,6.98
2022-12-29T03:32:37.383Z,6.97
2022-12-29T03:35:08.418Z,7.04
2022-12-29T03:37:41.891Z,7.07
2022-12-29T03:40:10.484Z,7.12
2022-12-29T03:42:40.538Z,7.15
2022-12-29T03:45:10.334Z,7.09
2022-12-29T03:47:38.430Z,7.08
2022-12-29T03:50:07.244Z,7.09
2022-12-29T03:52:38.063Z,7.11
2022-12-29T03:55:06.069Z,7.14
2022-12-29T03:57:33.436Z,7.07
2022-12-29T04:00:06.746Z,7.11
2022-12-29T04:02:43.409Z,7.19
2022-12-29T04:05:15.854Z,7.14
2022-12-29T04:07:43.367Z,7.16
2022-12-29T04:10:10.920Z,7.23
2022-12-29T04:12:38.987Z,7.30
2022-12-29T04:15:07.303Z,7.30
2022-12-29T04:17:34.875Z,7.38
2022-12-29T04:20:22.820Z,7.42
2022-12-29T04:22:57.971Z,7.40
2022-12-29T04:25:25.659Z,7.40
2022-12-29T04:27:53.682Z,7.42
2022-12-29T04:30:39.446Z,7.39
2022-12-29T04:33:14.543Z,7.43
2022-12-29T04:35:44.179Z,7.37
2022-12-29T04:38:12.773Z,7.41
2022-12-29T04:40:42.336Z,7.42
2022-12-29T04:43:11.988Z,7.37
2022-12-29T04:46:10.455Z,7.35
2022-12-29T04:49:09.421Z,7.31
2022-12-29T04:51:55.567Z,7.24
2022-12-29T04:54:24.054Z,7.26
2022-12-29T04:56:59.699Z,7.24
2022-12-29T04:59:27.066Z,7.22
2022-12-29T05:01:58.106Z,7.22
2022-12-29T05:04:25.767Z,7.22
2022-12-29T05:06:53.860Z,7.19
2022-12-29T05:09:21.293Z,7.34
2022-12-29T05:11:48.737Z,7.38
2022-12-29T05:14:16.148Z,7.43
2022-12-29T05:16:46.349Z,7.35
2022-12-29T05:19:14.027Z,7.32
2022-12-29T05:21:41.911Z,7.21
2022-12-29T05:24:09.414Z,7.24
2022-12-29T05:26:36.892Z,7.12
2022-12-29T05:29:22.890Z,7.11
2022-12-29T05:31:50.491Z,7.11
2022-12-29T05:34:17.902Z,7.10
2022-12-29T05:36:45.934Z,7.05
2022-12-29T05:39:14.952Z,7.06
2022-12-29T05:41:44.597Z,7.04
2022-12-29T05:44:30.534Z,6.97
2022-12-29T05:47:23.651Z,7.00
2022-12-29T05:50:04.388Z,6.94
2022-12-29T05:52:52.194Z,6.84
2022-12-29T05:55:20.215Z,6.92
2022-12-29T05:57:49.509Z,6.99
2022-12-29T06:00:18.743Z,6.91
2022-12-29T06:02:48.003Z,6.92
2022-12-29T06:05:17.396Z,6.92
2022-12-29T06:07:46.276Z,6.97
2022-12-29T06:10:16.000Z,6.94
2022-12-29T06:12:48.046Z,6.86
2022-12-29T06:15:16.114Z,6.78
2022-12-29T06:17:45.744Z,6.73
2022-12-29T06:20:13.302Z,6.73
2022-12-29T06:22:40.729Z,6.71
2022-12-29T06:25:09.073Z,6.68
2022-12-29T06:27:36.947Z,6.69
2022-12-29T06:30:04.864Z,6.72
2022-12-29T06:32:32.324Z,6.68
2022-12-29T06:35:07.048Z,6.59
2022-12-29T06:37:38.433Z,6.61
2022-12-29T06:40:06.534Z,6.59
2022-12-29T06:42:49.506Z,6.62
2022-12-29T06:45:33.752Z,6.63
2022-12-29T06:48:01.302Z,6.56
2022-12-29T06:50:28.702Z,6.65
2022-12-29T06:52:56.049Z,6.73
2022-12-29T06:55:23.425Z,6.77
2022-12-29T06:57:50.914Z,6.92
2022-12-29T07:00:22.734Z,6.97
2022-12-29T07:02:51.203Z,6.96
2022-12-29T07:05:19.025Z,6.99
2022-12-29T07:07:46.402Z,6.93
2022-12-29T07:10:14.013Z,6.88
2022-12-29T07:12:41.342Z,6.85
2022-12-29T07:15:09.034Z,6.89
2022-12-29T07:17:36.401Z,6.92
2022-12-29T07:20:04.279Z,6.97
2022-12-29T07:22:31.687Z,7.03
2022-12-29T07:24:59.056Z,7.08
2022-12-29T07:27:26.406Z,7.05
2022-12-29T07:29:53.725Z,7.16
2022-12-29T07:32:21.131Z,7.16
2022-12-29T07:34:48.562Z,7.11
2022-12-29T07:37:16.745Z,7.13
2022-12-29T07:39:45.009Z,7.13
2022-12-29T07:42:12.389Z,7.17
2022-12-29T07:44:43.702Z,7.17
2022-12-29T07:47:27.782Z,7.19
2022-12-29T07:49:55.123Z,7.30
2022-12-29T07:52:22.592Z,7.37
2022-12-29T07:54:50.214Z,7.38
2022-12-29T07:57:17.699Z,7.45
2022-12-29T07:59:45.032Z,7.51
2022-12-29T08:02:12.830Z,7.40
2022-12-29T08:04:40.296Z,7.41
2022-12-29T08:07:07.725Z,7.42
2022-12-29T08:09:35.604Z,7.51
2022-12-29T08:12:03.060Z,7.50
2022-12-29T08:14:30.356Z,7.47
2022-12-29T08:16:57.829Z,7.48
2022-12-29T08:19:25.257Z,7.51
2022-12-29T08:21:53.927Z,7.45
2022-12-29T08:24:21.388Z,7.53
2022-12-29T08:26:48.857Z,7.49
2022-12-29T08:29:16.183Z,7.53
2022-12-29T08:31:44.714Z,7.52
2022-12-29T08:34:12.151Z,7.52
2022-12-29T08:36:39.684Z,7.56
2022-12-29T08:39:07.173Z,7.61
2022-12-29T08:41:34.617Z,7.52
2022-12-29T08:44:02.015Z,7.60
2022-12-29T08:46:48.093Z,7.60
2022-12-29T08:49:15.583Z,7.57
2022-12-29T08:51:42.970Z,7.59
2022-12-29T08:54:10.462Z,7.63
2022-12-29T08:56:37.907Z,7.65
2022-12-29T08:59:05.731Z,7.67
2022-12-29T09:01:34.632Z,7.70
2022-12-29T09:04:18.347Z,7.66
2022-12-29T09:06:46.518Z,7.72
2022-12-29T09:09:14.265Z,7.75
2022-12-29T09:11:42.757Z,7.84
2022-12-29T09:14:10.174Z,7.84
2022-12-29T09:16:37.970Z,7.81
2022-12-29T09:19:05.478Z,7.81
2022-12-29T09:21:33.204Z,7.74
2022-12-29T09:24:00.625Z,7.75
2022-12-29T09:26:28.097Z,7.74
2022-12-29T09:28:55.527Z,7.77
2022-12-29T09:31:23.241Z,7.86
2022-12-29T09:33:50.700Z,7.87
2022-12-29T09:36:18.123Z,8.01
2022-12-29T09:38:45.440Z,8.14
2022-12-29T09:41:25.718Z,8.15
2022-12-29T09:44:18.541Z,8.18
2022-12-29T09:46:50.608Z,7.98
2022-12-29T09:49:29.943Z,7.94
2022-12-29T09:52:30.432Z,7.90
2022-12-29T09:55:18.067Z,7.96
2022-12-29T09:57:57.695Z,7.99
2022-12-29T10:01:01.393Z,8.01
2022-12-29T10:03:43.164Z,8.02
2022-12-29T10:06:26.881Z,8.10
2022-12-29T10:09:14.430Z,8.18
2022-12-29T10:11:50.912Z,8.13
2022-12-29T10:14:59.766Z,8.14
2022-12-29T10:17:44.180Z,8.38
2022-12-29T10:20:43.733Z,8.86
2022-12-29T10:23:29.218Z,9.21
2022-12-29T10:25:59.316Z,9.43
2022-12-29T10:28:51.686Z,9.24
2022-12-29T10:31:39.203Z,9.37
2022-12-29T10:34:33.406Z,9.30
2022-12-29T10:37:33.456Z,9.13
2022-12-29T10:40:13.462Z,9.28
2022-12-29T10:42:47.837Z,9.42
2022-12-29T10:45:17.752Z,9.42
2022-12-29T10:48:18.708Z,9.41
2022-12-29T10:50:46.384Z,9.42
2022-12-29T10:53:23.890Z,9.51
2022-12-29T10:55:51.586Z,9.52
2022-12-29T10:58:20.056Z,9.32
2022-12-29T11:00:54.633Z,9.72
2022-12-29T11:03:43.442Z,9.58
2022-12-29T11:06:17.569Z,9.82
2022-12-29T11:09:11.008Z,9.82
2022-12-29T11:11:38.943Z,9.73
2022-12-29T11:14:18.723Z,9.40
2022-12-29T11:16:58.138Z,9.53
2022-12-29T11:19:28.428Z,9.54
2022-12-29T11:21:56.101Z,9.66
2022-12-29T11:24:27.189Z,9.72
2022-12-29T11:27:09.308Z,9.73
2022-12-29T11:29:40.561Z,9.71
2022-12-29T11:32:29.414Z,9.64
2022-12-29T11:35:01.972Z,9.68
2022-12-29T11:37:39.970Z,9.80
2022-12-29T11:40:22.111Z,9.88
2022-12-29T11:42:55.958Z,9.73
2022-12-29T11:45:29.670Z,9.66
2022-12-29T11:48:06.714Z,9.60
2022-12-29T11:50:36.919Z,9.49
2022-12-29T11:53:09.071Z,9.31
2022-12-29T11:55:36.566Z,9.19
2022-12-29T11:58:05.925Z,9.19
2022-12-29T12:00:40.714Z,9.04
2022-12-29T12:03:10.871Z,9.06
2022-12-29T12:05:51.361Z,8.92
2022-12-29T12:08:35.408Z,8.97
2022-12-29T12:11:26.070Z,9.01
2022-12-29T12:14:16.703Z,8.95
2022-12-29T12:17:13.746Z,9.10
2022-12-29T12:20:08.946Z,9.26
2022-12-29T12:22:59.755Z,9.18
2022-12-29T12:25:35.379Z,9.01
2022-12-29T12:28:21.572Z,9.09
2022-12-29T12:30:54.563Z,8.95
2022-12-29T12:33:34.449Z,8.84
2022-12-29T12:36:05.037Z,8.88
2022-12-29T12:39:00.993Z,8.76
2022-12-29T12:41:36.696Z,8.78
2022-12-29T12:44:34.963Z,8.83
2022-12-29T12:47:11.132Z,8.82
2022-12-29T12:49:41.484Z,8.87
2022-12-29T12:52:47.087Z,8.82
2022-12-29T12:55:36.256Z,8.77
2022-12-29T12:58:37.217Z,8.87
2022-12-29T13:01:34.246Z,8.89
2022-12-29T13:04:37.793Z,8.81
2022-12-29T13:07:22.472Z,8.70
2022-12-29T13:09:58.746Z,8.68
2022-12-29T13:12:42.411Z,8.74
2022-12-29T13:15:16.934Z,8.74
2022-12-29T13:18:10.632Z,8.73
2022-12-29T13:20:47.289Z,8.63
2022-12-29T13:23:36.242Z,8.66
2022-12-29T13:26:14.748Z,8.57
2022-12-29T13:29:11.379Z,8.65
2022-12-29T13:32:02.894Z,8.65
2022-12-29T13:35:05.496Z,8.63
2022-12-29T13:37:37.205Z,8.56
2022-12-29T13:40:22.280Z,8.61
2022-12-29T13:42:50.779Z,8.68
2022-12-29T13:45:22.473Z,8.72
2022-12-29T13:48:02.379Z,8.70
2022-12-29T13:50:35.334Z,8.70
2022-12-29T13:53:28.066Z,8.67
2022-12-29T13:56:05.951Z,8.60
2022-12-29T13:58:33.445Z,8.60
2022-12-29T14:01:19.287Z,8.58
2022-12-29T14:03:58.462Z,8.52
2022-12-29T14:06:35.708Z,8.48
2022-12-29T14:09:07.357Z,8.46
2022-12-29T14:11:37.342Z,8.41
2022-12-29T14:14:15.323Z,8.40
2022-12-29T14:16:44.049Z,8.38
2022-12-29T14:19:19.762Z,8.37
2022-12-29T14:22:32.731Z,8.38
2022-12-29T14:25:01.716Z,8.37
2022-12-29T14:27:28.982Z,8.35
2022-12-29T14:29:56.452Z,8.34
2022-12-29T14:32:26.575Z,8.33
2022-12-29T14:34:57.658Z,8.37
2022-12-29T14:37:40.012Z,8.36
2022-12-29T14:40:20.256Z,8.39
2022-12-29T14:42:48.936Z,8.38
2022-12-29T14:45:19.769Z,8.37
2022-12-29T14:47:49.979Z,8.34
2022-12-29T14:50:22.236Z,8.34
2022-12-29T14:52:49.606Z,8.30
2022-12-29T14:55:16.864Z,8.25
2022-12-29T14:57:49.608Z,8.26
2022-12-29T15:00:28.355Z,8.26
2022-12-29T15:03:06.536Z,8.30
2022-12-29T15:05:48.040Z,8.34
2022-12-29T15:08:20.805Z,8.38
2022-12-29T15:10:55.535Z,8.37
2022-12-29T15:13:26.337Z,8.36
2022-12-29T15:15:54.011Z,8.44
2022-12-29T15:18:24.893Z,8.52
2022-12-29T15:21:05.590Z,8.37
2022-12-29T15:23:36.112Z,8.37
2022-12-29T15:26:08.861Z,8.40
2022-12-29T15:28:46.100Z,8.31
2022-12-29T15:31:30.592Z,8.28
2022-12-29T15:34:13.374Z,8.21
2022-12-29T15:36:42.363Z,8.25
2022-12-29T15:39:30.082Z,8.19
2022-12-29T15:42:37.570Z,8.17
2022-12-29T15:45:11.193Z,8.21
2022-12-29T15:47:40.969Z,8.26
2022-12-29T15:50:30.110Z,8.35
2022-12-29T15:52:59.255Z,8.32
2022-12-29T15:55:35.888Z,8.36
2022-12-29T15:58:06.504Z,8.26
2022-12-29T16:00:38.344Z,8.29
2022-12-29T16:03:06.779Z,8.38
2022-12-29T16:05:39.952Z,8.39
2022-12-29T16:08:38.853Z,8.35
2022-12-29T16:11:24.873Z,8.32
2022-12-29T16:13:54.467Z,8.27
2022-12-29T16:16:43.166Z,8.29
2022-12-29T16:19:20.151Z,8.35
2022-12-29T16:21:48.210Z,8.30
2022-12-29T16:24:21.938Z,8.24
2022-12-29T16:27:30.410Z,8.24
2022-12-29T16:29:58.000Z,8.34
2022-12-29T16:32:29.845Z,8.55
2022-12-29T16:35:40.627Z,8.46
2022-12-29T16:38:19.549Z,8.32
2022-12-29T16:40:57.911Z,8.27
2022-12-29T16:43:27.765Z,8.19
2022-12-29T16:46:01.457Z,8.18
2022-12-29T16:48:32.724Z,8.29
2022-12-29T16:51:31.132Z,8.26
2022-12-29T16:54:00.175Z,8.26
2022-12-29T16:56:31.498Z,8.26
2022-12-29T16:59:05.708Z,8.27
2022-12-29T17:01:37.252Z,8.25
2022-12-29T17:04:08.808Z,8.22
2022-12-29T17:06:36.189Z,8.21
2022-12-29T17:09:03.966Z,8.19
2022-12-29T17:11:59.223Z,8.18
2022-12-29T17:14:32.841Z,8.16
2022-12-29T17:17:03.639Z,8.09
2022-12-29T17:19:36.717Z,8.02
2022-12-29T17:22:10.171Z,8.03
2022-12-29T17:24:38.357Z,7.93
2022-12-29T17:27:06.105Z,8.00
2022-12-29T17:29:40.994Z,8.04
2022-12-29T17:32:13.588Z,8.02
2022-12-29T17:34:41.824Z,8.00
2022-12-29T17:37:24.310Z,8.02
2022-12-29T17:39:51.688Z,8.03
2022-12-29T17:42:20.008Z,8.02
2022-12-29T17:44:48.015Z,8.00
2022-12-29T17:47:16.000Z,7.98
2022-12-29T17:49:46.757Z,8.04
2022-12-29T17:52:16.012Z,8.07
2022-12-29T17:54:50.972Z,8.05
2022-12-29T17:57:21.561Z,8.07
2022-12-29T17:59:49.253Z,8.00
2022-12-29T18:02:31.600Z,8.00
2022-12-29T18:04:59.769Z,7.93
2022-12-29T18:07:35.405Z,8.03
2022-12-29T18:10:04.054Z,8.07
2022-12-29T18:12:45.954Z,8.07
2022-12-29T18:15:28.256Z,8.08
2022-12-29T18:18:16.547Z,8.02
2022-12-29T18:20:44.848Z,7.98
2022-12-29T18:23:24.625Z,7.94
2022-12-29T18:25:54.085Z,7.91
2022-12-29T18:28:21.491Z,7.93
2022-12-29T18:30:49.167Z,7.92
2022-12-29T18:33:22.562Z,7.88
2022-12-29T18:36:03.137Z,7.89
2022-12-29T18:38:31.472Z,7.85
2022-12-29T18:40:59.663Z,7.86
2022-12-29T18:43:27.073Z,7.84
2022-12-29T18:45:54.715Z,7.86
2022-12-29T18:48:22.564Z,7.89
2022-12-29T18:50:51.740Z,7.87
2022-12-29T18:53:22.314Z,7.88
2022-12-29T18:55:51.155Z,7.87
2022-12-29T18:58:18.747Z,7.86
2022-12-29T19:00:46.941Z,7.86
2022-12-29T19:03:16.982Z,7.78
2022-12-29T19:05:46.578Z,7.77
2022-12-29T19:08:14.151Z,7.80
2022-12-29T19:10:43.342Z,7.81
2022-12-29T19:13:19.745Z,7.78
2022-12-29T19:15:48.499Z,7.82
2022-12-29T19:21:08.885Z,7.83
2022-12-29T19:23:36.251Z,7.81
2022-12-29T19:26:03.711Z,7.77
2022-12-29T19:28:31.106Z,7.76
2022-12-29T19:31:00.220Z,7.79
2022-12-29T19:33:28.342Z,7.79
2022-12-29T19:36:01.428Z,7.83
2022-12-29T19:38:29.113Z,7.78
2022-12-29T19:40:56.584Z,7.85
2022-12-29T19:43:24.022Z,7.79
2022-12-29T19:45:52.434Z,7.79
2022-12-29T19:48:20.855Z,7.76
2022-12-29T19:50:48.638Z,7.75
2022-12-29T19:53:16.238Z,7.78
2022-12-29T19:55:47.753Z,7.76
2022-12-29T19:58:15.259Z,7.79
2022-12-29T20:00:43.576Z,7.72
2022-12-29T20:03:11.609Z,7.72
2022-12-29T20:05:39.632Z,7.76
2022-12-29T20:08:07.261Z,7.85
2022-12-29T20:10:34.735Z,7.89
2022-12-29T20:13:04.493Z,7.87
2022-12-29T20:15:32.342Z,7.95
2022-12-29T20:18:13.053Z,7.98
2022-12-29T20:20:42.022Z,7.93
2022-12-29T20:23:09.311Z,7.90
2022-12-29T20:25:45.581Z,7.90
2022-12-29T20:28:15.133Z,7.93
2022-12-29T20:30:43.308Z,7.96
2022-12-29T20:33:10.718Z,7.93
2022-12-29T20:35:38.141Z,7.85
2022-12-29T20:38:05.548Z,7.90
2022-12-29T20:40:32.961Z,8.09
2022-12-29T20:43:00.383Z,7.99
2022-12-29T20:45:27.822Z,8.01
2022-12-29T20:47:55.280Z,7.92
2022-12-29T20:50:22.589Z,7.86
2022-12-29T20:52:50.018Z,7.83
2022-12-29T20:55:17.559Z,7.75
2022-12-29T20:58:22.031Z,7.72
2022-12-29T21:00:33.048Z,7.70
2022-12-29T21:03:01.045Z,7.71
2022-12-29T21:05:29.536Z,7.71
2022-12-29T21:07:59.518Z,7.70
2022-12-29T21:10:27.041Z,7.67
2022-12-29T21:12:54.520Z,7.70
2022-12-29T21:15:22.559Z,7.70
2022-12-29T21:17:49.972Z,7.66
2022-12-29T21:20:20.617Z,7.65
2022-12-29T21:22:48.699Z,7.66
2022-12-29T21:25:16.174Z,7.59
2022-12-29T21:27:46.400Z,7.62
2022-12-29T21:30:14.638Z,7.62
2022-12-29T21:32:42.054Z,7.63
2022-12-29T21:35:09.912Z,7.75
2022-12-29T21:37:37.317Z,7.63
2022-12-29T21:40:05.717Z,7.65
2022-12-29T21:42:33.995Z,7.62
2022-12-29T21:45:20.998Z,7.68
2022-12-29T21:48:07.250Z,7.63
2022-12-29T21:50:59.335Z,7.63
2022-12-29T21:53:40.490Z,7.62
2022-12-29T21:56:13.982Z,7.65
2022-12-29T21:59:02.415Z,7.63
2022-12-29T22:01:49.936Z,7.60
2022-12-29T22:04:39.062Z,7.64
2022-12-29T22:07:27.381Z,7.60
2022-12-29T22:10:13.743Z,7.73
2022-12-29T22:13:00.036Z,7.70
2022-12-29T22:15:30.712Z,7.71
2022-12-29T22:17:58.651Z,7.71
2022-12-29T22:20:29.472Z,7.66
2022-12-29T22:22:56.929Z,7.75
2022-12-29T22:25:24.733Z,7.77
2022-12-29T22:27:58.547Z,7.67
2022-12-29T22:30:28.332Z,7.71
2022-12-29T22:32:58.072Z,7.66
2022-12-29T22:35:25.470Z,7.78
2022-12-29T22:37:53.481Z,7.68
2022-12-29T22:40:20.893Z,7.64
2022-12-29T22:42:48.444Z,7.59
2022-12-29T22:45:15.999Z,7.55
2022-12-29T22:47:43.357Z,7.55
2022-12-29T22:50:10.796Z,7.63
2022-12-29T22:52:38.176Z,7.62
2022-12-29T22:55:07.194Z,7.60
2022-12-29T22:57:35.790Z,7.60
2022-12-29T23:00:06.666Z,7.56
2022-12-29T23:02:34.904Z,7.63
2022-12-29T23:05:04.777Z,7.65
2022-12-29T23:07:34.942Z,7.51
2022-12-29T23:10:04.791Z,7.59
2022-12-29T23:12:32.797Z,7.61
2022-12-29T23:15:00.160Z,7.57
2022-12-29T23:17:27.790Z,7.58
2022-12-29T23:19:55.129Z,7.51
2022-12-29T23:22:23.129Z,7.56
2022-12-29T23:24:50.812Z,7.53
2022-12-29T23:27:18.196Z,7.56
2022-12-29T23:29:45.600Z,7.49
2022-12-29T23:32:13.019Z,7.59
2022-12-29T23:34:40.428Z,7.61
2022-12-29T23:37:07.842Z,7.61
2022-12-29T23:39:35.213Z,7.58
2022-12-29T23:42:02.571Z,7.58
2022-12-29T23:44:30.041Z,7.55
2022-12-29T23:46:57.483Z,7.55
2022-12-29T23:49:24.973Z,7.55
2022-12-29T23:51:52.348Z,7.56
2022-12-29T23:54:19.768Z,7.52
2022-12-29T23:56:47.187Z,7.49
2022-12-29T23:59:14.523Z,7.52
